createdAt,value
2016-10-07T00:00:09.494Z,-1.77
2016-10-07T00:01:09.479Z,-1.77
2016-10-07T00:02:09.480Z,-1.88
2016-10-07T00:03:09.452Z,-1.83
2016-10-07T00:04:09.417Z,-1.96
2016-10-07T00:05:09.428Z,-1.9
2016-10-07T00:06:09.419Z,-1.89
2016-10-07T00:07:09.405Z,-1.95
2016-10-07T00:08:09.368Z,-1.88
2016-10-07T00:09:09.360Z,-1.82
2016-10-07T00:10:09.330Z,-1.78
2016-10-07T00:11:09.320Z,-1.88
2016-10-07T00:12:09.313Z,-1.82
2016-10-07T00:13:09.634Z,-1.75
2016-10-07T00:14:09.282Z,-1.85
2016-10-07T00:15:09.281Z,-2.06
2016-10-07T00:16:09.258Z,-2.04
2016-10-07T00:17:09.227Z,-2.08
2016-10-07T00:18:09.218Z,-2.01
2016-10-07T00:19:09.195Z,-2.06
2016-10-07T00:20:09.178Z,-2.1
2016-10-07T00:21:09.171Z,-2.01
2016-10-07T00:22:09.460Z,-2.04
2016-10-07T00:23:09.136Z,-2.08
2016-10-07T00:24:09.131Z,-2.13
2016-10-07T00:25:09.118Z,-2.1
2016-10-07T00:26:09.096Z,-2.24
2016-10-07T00:27:09.077Z,-2.22
2016-10-07T00:28:09.049Z,-2.25
2016-10-07T00:29:09.045Z,-2.16
2016-10-07T00:30:09.019Z,-2.22
2016-10-07T00:31:08.997Z,-2.08
2016-10-07T00:32:08.989Z,-2.08
2016-10-07T00:33:08.986Z,-2.06
2016-10-07T00:34:08.949Z,-2.03
2016-10-07T00:35:08.945Z,-1.98
2016-10-07T00:36:08.923Z,-1.77
2016-10-07T00:37:08.909Z,-1.85
2016-10-07T00:38:08.893Z,-1.85
2016-10-07T00:39:08.879Z,-1.88
2016-10-07T00:40:08.875Z,-1.95
2016-10-07T00:41:08.836Z,-2.07
2016-10-07T00:42:08.836Z,-2.07
2016-10-07T00:43:08.815Z,-2.04
2016-10-07T00:44:08.804Z,-2.1
2016-10-07T00:45:08.782Z,-2.03
2016-10-07T00:46:08.772Z,-1.72
2016-10-07T00:47:08.754Z,-1.86
2016-10-07T00:48:08.738Z,-1.78
2016-10-07T00:49:08.722Z,-1.8
2016-10-07T00:50:08.709Z,-1.85
2016-10-07T00:51:08.692Z,-1.92
2016-10-07T00:52:08.807Z,-2.07
2016-10-07T00:53:08.676Z,-2.1
2016-10-07T00:54:08.636Z,-2.1
2016-10-07T00:55:08.627Z,-2.03
2016-10-07T00:56:08.596Z,-2.04
2016-10-07T00:57:08.596Z,-2.21
2016-10-07T00:58:08.562Z,-2.22
2016-10-07T00:59:08.571Z,-2.19
2016-10-07T01:00:08.563Z,-2.24
2016-10-07T01:01:08.546Z,-2.19
2016-10-07T01:02:08.529Z,-2.21
2016-10-07T01:03:08.513Z,-2.08
2016-10-07T01:04:08.482Z,-2.16
2016-10-07T01:05:08.465Z,-2.1
2016-10-07T01:06:08.458Z,-2.04
2016-10-07T01:07:08.423Z,-1.96
2016-10-07T01:08:08.444Z,-1.86
2016-10-07T01:09:08.403Z,-1.9
2016-10-07T01:10:08.400Z,-1.98
2016-10-07T01:11:08.374Z,-2.06
2016-10-07T01:12:08.337Z,-2.18
2016-10-07T01:13:08.338Z,-2.21
2016-10-07T01:14:08.307Z,-2.22
2016-10-07T01:15:08.291Z,-2.22
2016-10-07T01:16:08.308Z,-2.11
2016-10-07T01:17:08.281Z,-2.22
2016-10-07T01:18:08.260Z,-2.07
2016-10-07T01:19:08.232Z,-2.04
2016-10-07T01:20:08.238Z,-2.13
2016-10-07T01:21:08.222Z,-2.06
2016-10-07T01:22:08.213Z,-2.13
2016-10-07T01:23:08.197Z,-2.21
2016-10-07T01:24:08.174Z,-2.19
2016-10-07T01:25:08.158Z,-2.21
2016-10-07T01:26:08.112Z,-2.19
2016-10-07T01:27:08.117Z,-2.11
2016-10-07T01:28:08.116Z,-2
2016-10-07T01:29:08.071Z,-1.98
2016-10-07T01:30:08.066Z,-2.03
2016-10-07T01:31:08.046Z,-2.1
2016-10-07T01:32:08.034Z,-1.8
2016-10-07T01:33:08.028Z,-1.51
2016-10-07T01:34:08.003Z,-1.51
2016-10-07T01:35:07.988Z,-1.44
2016-10-07T01:36:07.985Z,-1.33
2016-10-07T01:37:07.943Z,-1.29
2016-10-07T01:38:07.940Z,-1.46
2016-10-07T01:39:07.933Z,-1.36
2016-10-07T01:40:07.901Z,-1.36
2016-10-07T01:41:07.886Z,-1.23
2016-10-07T01:42:07.880Z,-1.28
2016-10-07T01:43:07.857Z,-1.56
2016-10-07T01:44:07.848Z,-1.51
2016-10-07T01:45:07.826Z,-1.31
2016-10-07T01:46:07.809Z,-1.47
2016-10-07T01:47:07.799Z,-1.83
2016-10-07T01:48:07.788Z,-2.06
2016-10-07T01:49:07.766Z,-1.9
2016-10-07T01:50:07.755Z,-1.67
2016-10-07T01:51:07.724Z,-1.85
2016-10-07T01:52:07.724Z,-2.01
2016-10-07T01:53:07.718Z,-2.1
2016-10-07T01:54:07.693Z,-2
2016-10-07T01:55:07.668Z,-2.13
2016-10-07T01:56:07.656Z,-2.1
2016-10-07T01:57:07.660Z,-2.08
2016-10-07T01:58:07.640Z,-2.07
2016-10-07T01:59:07.594Z,-2.06
2016-10-07T02:00:07.607Z,-2.04
2016-10-07T02:01:07.583Z,-2.01
2016-10-07T02:02:07.562Z,-2.07
2016-10-07T02:03:07.550Z,-2
2016-10-07T02:04:07.519Z,-1.92
2016-10-07T02:05:07.517Z,-1.92
2016-10-07T02:06:07.481Z,-1.92
2016-10-07T02:07:07.478Z,-1.83
2016-10-07T02:08:07.467Z,-1.8
2016-10-07T02:09:07.471Z,-1.86
2016-10-07T02:10:07.439Z,-1.86
2016-10-07T02:11:07.411Z,-1.89
2016-10-07T02:12:07.601Z,-1.92
2016-10-07T02:13:07.370Z,-1.75
2016-10-07T02:14:07.359Z,-1.65
2016-10-07T02:15:07.359Z,-1.41
2016-10-07T02:16:07.343Z,-1.39
2016-10-07T02:17:07.317Z,-1.62
2016-10-07T02:18:07.281Z,-1.64
2016-10-07T02:19:07.266Z,-1.54
2016-10-07T02:20:07.270Z,-1.82
2016-10-07T02:21:07.256Z,-1.88
2016-10-07T02:22:07.234Z,-1.83
2016-10-07T02:23:07.216Z,-1.82
2016-10-07T02:24:07.191Z,-1.78
2016-10-07T02:25:07.190Z,-1.62
2016-10-07T02:26:07.164Z,-1.65
2016-10-07T02:27:07.151Z,-1.67
2016-10-07T02:28:07.158Z,-1.68
2016-10-07T02:29:07.127Z,-1.62
2016-10-07T02:30:07.110Z,-1.68
2016-10-07T02:31:07.088Z,-1.39
2016-10-07T02:32:07.094Z,-1.23
2016-10-07T02:33:07.065Z,-1.11
2016-10-07T02:34:07.056Z,-1.11
2016-10-07T02:35:07.013Z,-1.25
2016-10-07T02:36:07.022Z,-1.23
2016-10-07T02:37:07.009Z,-1.21
2016-10-07T02:38:06.986Z,-1.03
2016-10-07T02:39:06.975Z,-0.97
2016-10-07T02:40:06.995Z,-0.89
2016-10-07T02:41:06.935Z,-0.97
2016-10-07T02:42:06.926Z,-1.1
2016-10-07T02:43:06.904Z,-1.2
2016-10-07T02:44:06.903Z,-1.21
2016-10-07T02:45:06.877Z,-1.44
2016-10-07T02:46:06.892Z,-1.49
2016-10-07T02:47:06.829Z,-1.56
2016-10-07T02:48:06.829Z,-1.7
2016-10-07T02:49:06.835Z,-1.65
2016-10-07T02:50:06.814Z,-1.77
2016-10-07T02:51:06.782Z,-1.88
2016-10-07T02:52:06.772Z,-2.08
2016-10-07T02:53:07.049Z,-2.03
2016-10-07T02:54:06.744Z,-2.19
2016-10-07T02:55:06.709Z,-2.26
2016-10-07T02:56:06.729Z,-2.18
2016-10-07T02:57:06.697Z,-2.01
2016-10-07T02:58:06.684Z,-2.07
2016-10-07T02:59:06.665Z,-2
2016-10-07T03:00:06.630Z,-2.1
2016-10-07T03:01:06.635Z,-2.16
2016-10-07T03:02:06.635Z,-2.08
2016-10-07T03:03:06.592Z,-2.03
2016-10-07T03:04:06.583Z,-2.04
2016-10-07T03:05:06.577Z,-2.03
2016-10-07T03:06:06.551Z,-1.92
2016-10-07T03:07:06.541Z,-1.75
2016-10-07T03:08:06.527Z,-1.71
2016-10-07T03:09:06.504Z,-1.92
2016-10-07T03:10:06.498Z,-1.89
2016-10-07T03:11:06.488Z,-1.88
2016-10-07T03:12:06.472Z,-2
2016-10-07T03:13:06.436Z,-2.07
2016-10-07T03:14:06.433Z,-1.98
2016-10-07T03:15:06.410Z,-1.92
2016-10-07T03:16:06.401Z,-1.88
2016-10-07T03:17:06.377Z,-1.89
2016-10-07T03:18:06.385Z,-1.65
2016-10-07T03:19:06.330Z,-1.53
2016-10-07T03:20:06.327Z,-1.56
2016-10-07T03:21:06.316Z,-1.62
2016-10-07T03:22:06.309Z,-1.85
2016-10-07T03:23:06.298Z,-1.95
2016-10-07T03:24:06.254Z,-2.04
2016-10-07T03:25:06.262Z,-1.9
2016-10-07T03:26:06.252Z,-2
2016-10-07T03:27:06.230Z,-2.07
2016-10-07T03:28:06.227Z,-1.95
2016-10-07T03:29:06.189Z,-1.88
2016-10-07T03:30:06.179Z,-1.86
2016-10-07T03:31:06.175Z,-1.72
2016-10-07T03:32:06.208Z,-1.78
2016-10-07T03:33:06.132Z,-1.77
2016-10-07T03:34:06.131Z,-1.88
2016-10-07T03:35:06.091Z,-2.03
2016-10-07T03:36:06.072Z,-2.11
2016-10-07T03:37:06.048Z,-2.19
2016-10-07T03:38:06.330Z,-2.21
2016-10-07T03:39:06.351Z,-2.21
2016-10-07T03:40:06.019Z,-2.18
2016-10-07T03:41:06.021Z,-2.26
2016-10-07T03:42:05.997Z,-2.22
2016-10-07T03:43:05.963Z,-2.14
2016-10-07T03:44:05.939Z,-2.18
2016-10-07T03:45:05.944Z,-2.22
2016-10-07T03:46:05.902Z,-2.26
2016-10-07T03:47:05.903Z,-2.24
2016-10-07T03:48:05.886Z,-2.21
2016-10-07T03:49:05.885Z,-2.26
2016-10-07T03:50:05.867Z,-2.19
2016-10-07T03:51:05.853Z,-2.21
2016-10-07T03:52:05.813Z,-2.22
2016-10-07T03:53:05.806Z,-2.18
2016-10-07T03:54:05.787Z,-2.22
2016-10-07T03:55:05.783Z,-2.24
2016-10-07T03:56:05.760Z,-2.21
2016-10-07T03:57:05.734Z,-2.24
2016-10-07T03:58:05.699Z,-2.11
2016-10-07T03:59:06.003Z,-2.07
2016-10-07T04:00:05.688Z,-2.06
2016-10-07T04:01:05.980Z,-2.08
2016-10-07T04:02:05.657Z,-2.07
2016-10-07T04:03:05.651Z,-2.03
2016-10-07T04:04:05.635Z,-2.06
2016-10-07T04:05:05.604Z,-2.01
2016-10-07T04:06:05.601Z,-2.08
2016-10-07T04:07:05.568Z,-2.03
2016-10-07T04:08:05.564Z,-1.96
2016-10-07T04:09:05.537Z,-1.96
2016-10-07T04:10:05.513Z,-2.04
2016-10-07T04:11:05.499Z,-1.98
2016-10-07T04:12:05.782Z,-1.93
2016-10-07T04:13:05.482Z,-1.89
2016-10-07T04:14:05.769Z,-1.75
2016-10-07T04:15:05.436Z,-1.75
2016-10-07T04:16:05.413Z,-1.82
2016-10-07T04:17:05.396Z,-1.9
2016-10-07T04:18:05.401Z,-1.92
2016-10-07T04:19:05.370Z,-1.9
2016-10-07T04:20:05.340Z,-1.86
2016-10-07T04:21:05.627Z,-1.83
2016-10-07T04:22:05.331Z,-1.65
2016-10-07T04:23:05.311Z,-1.67
2016-10-07T04:24:05.301Z,-1.72
2016-10-07T04:25:05.286Z,-1.65
2016-10-07T04:26:05.257Z,-1.64
2016-10-07T04:27:05.244Z,-1.59
2016-10-07T04:28:05.240Z,-1.8
2016-10-07T04:29:05.209Z,-1.78
2016-10-07T04:30:05.500Z,-1.86
2016-10-07T04:31:05.170Z,-1.88
2016-10-07T04:32:05.142Z,-1.88
2016-10-07T04:33:05.149Z,-1.78
2016-10-07T04:34:05.110Z,-1.74
2016-10-07T04:35:05.093Z,-1.62
2016-10-07T04:36:05.079Z,-1.38
2016-10-07T04:37:05.082Z,-1.47
2016-10-07T04:38:05.053Z,-1.41
2016-10-07T04:39:05.035Z,-1.33
2016-10-07T04:40:05.013Z,-1.31
2016-10-07T04:41:05.011Z,-1.33
2016-10-07T04:42:04.975Z,-1.31
2016-10-07T04:43:04.957Z,-1.35
2016-10-07T04:44:04.962Z,-1.28
2016-10-07T04:45:04.930Z,-1.07
2016-10-07T04:46:04.933Z,-0.89
2016-10-07T04:47:04.914Z,-0.89
2016-10-07T04:48:05.196Z,-0.96
2016-10-07T04:49:04.884Z,-0.92
2016-10-07T04:50:04.869Z,-0.93
2016-10-07T04:51:04.868Z,-0.89
2016-10-07T04:52:04.837Z,-0.78
2016-10-07T04:53:04.815Z,-0.95
2016-10-07T04:54:04.815Z,-0.95
2016-10-07T04:55:04.806Z,-1.05
2016-10-07T04:56:04.771Z,-1
2016-10-07T04:57:04.775Z,-1.13
2016-10-07T04:58:04.734Z,-1.15
2016-10-07T04:59:04.718Z,-1.13
2016-10-07T05:00:04.727Z,-1.14
2016-10-07T05:01:04.680Z,-1.18
2016-10-07T05:02:04.693Z,-1.18
2016-10-07T05:03:04.660Z,-1.36
2016-10-07T05:04:04.669Z,-1.32
2016-10-07T05:05:04.649Z,-1.31
2016-10-07T05:06:04.631Z,-1.32
2016-10-07T05:07:04.594Z,-1.23
2016-10-07T05:08:04.592Z,-1.29
2016-10-07T05:09:04.578Z,-1.23
2016-10-07T05:10:04.563Z,-1.25
2016-10-07T05:11:04.540Z,-1.31
2016-10-07T05:12:04.548Z,-1.29
2016-10-07T05:13:04.504Z,-1.41
2016-10-07T05:14:04.704Z,-1.38
2016-10-07T05:15:04.494Z,-1.41
2016-10-07T05:16:04.482Z,-1.44
2016-10-07T05:17:04.473Z,-1.32
2016-10-07T05:18:04.419Z,-1.31
2016-10-07T05:19:04.404Z,-1.11
2016-10-07T05:20:04.396Z,-0.92
2016-10-07T05:21:04.692Z,-0.85
2016-10-07T05:22:04.372Z,-0.73
2016-10-07T05:23:04.376Z,-0.68
2016-10-07T05:24:04.337Z,-0.89
2016-10-07T05:25:04.328Z,-0.93
2016-10-07T05:26:04.308Z,-0.92
2016-10-07T05:27:04.306Z,-1.02
2016-10-07T05:28:04.289Z,-1.17
2016-10-07T05:29:04.273Z,-1.17
2016-10-07T05:30:04.253Z,-1.28
2016-10-07T05:31:04.256Z,-1.15
2016-10-07T05:32:04.245Z,-1.05
2016-10-07T05:33:04.229Z,-1.18
2016-10-07T05:34:04.183Z,-1.23
2016-10-07T05:35:04.193Z,-1.29
2016-10-07T05:36:04.175Z,-1.35
2016-10-07T05:37:04.135Z,-1.31
2016-10-07T05:38:04.118Z,-1.11
2016-10-07T05:39:04.108Z,-1.08
2016-10-07T05:40:04.095Z,-1.1
2016-10-07T05:41:04.094Z,-0.95
2016-10-07T05:42:04.291Z,-0.95
2016-10-07T05:43:04.253Z,-0.9
2016-10-07T05:44:04.565Z,-0.86
2016-10-07T05:45:04.021Z,-0.83
2016-10-07T05:46:04.003Z,-0.93
2016-10-07T05:47:04.024Z,-0.95
2016-10-07T05:48:03.986Z,-0.97
2016-10-07T05:49:03.973Z,-1.05
2016-10-07T05:50:04.014Z,-1.03
2016-10-07T05:51:03.925Z,-0.99
2016-10-07T05:52:03.915Z,-0.93
2016-10-07T05:53:03.911Z,-0.93
2016-10-07T05:54:03.896Z,-0.83
2016-10-07T05:55:03.897Z,-0.78
2016-10-07T05:56:03.880Z,-0.81
2016-10-07T05:57:03.852Z,-0.81
2016-10-07T05:58:03.836Z,-0.73
2016-10-07T05:59:03.813Z,-0.52
2016-10-07T06:00:03.825Z,-0.42
2016-10-07T06:01:03.773Z,-0.24
2016-10-07T06:02:03.790Z,-0.44
2016-10-07T06:03:03.768Z,-0.42
2016-10-07T06:04:03.738Z,-0.41
2016-10-07T06:05:03.710Z,-0.3
2016-10-07T06:06:03.709Z,-0.01
2016-10-07T06:07:03.703Z,-0.12
2016-10-07T06:08:03.691Z,-0.47
2016-10-07T06:09:03.667Z,-0.89
2016-10-07T06:10:03.650Z,-0.93
2016-10-07T06:11:03.637Z,-0.86
2016-10-07T06:12:03.611Z,-0.73
2016-10-07T06:13:03.799Z,-0.47
2016-10-07T06:14:03.815Z,-0.32
2016-10-07T06:15:03.592Z,-0.39
2016-10-07T06:16:03.581Z,-0.55
2016-10-07T06:17:03.562Z,-0.56
2016-10-07T06:18:03.518Z,-0.53
2016-10-07T06:19:03.519Z,-0.35
2016-10-07T06:20:03.502Z,-0.05
2016-10-07T06:21:03.492Z,0.19
2016-10-07T06:22:03.496Z,0.25
2016-10-07T06:23:03.460Z,0.45
2016-10-07T06:26:35.508Z,0.22
2016-10-07T06:27:03.403Z,0.22
2016-10-07T06:28:03.405Z,0.4
2016-10-07T06:29:03.380Z,0.34
2016-10-07T06:30:03.364Z,0.08
2016-10-07T06:31:03.352Z,-0.17
2016-10-07T06:32:03.335Z,-0.56
2016-10-07T06:33:03.370Z,-0.83
2016-10-07T06:34:03.313Z,-0.92
2016-10-07T06:35:03.278Z,-0.97
2016-10-07T06:36:03.266Z,-0.93
2016-10-07T06:37:03.268Z,-1.08
2016-10-07T06:38:03.233Z,-1.17
2016-10-07T06:39:03.225Z,-1.23
2016-10-07T06:40:03.218Z,-1.15
2016-10-07T06:41:03.203Z,-1.13
2016-10-07T06:42:03.163Z,-0.92
2016-10-07T06:43:03.369Z,-0.76
2016-10-07T06:44:03.135Z,-0.85
2016-10-07T06:45:03.143Z,-0.73
2016-10-07T06:46:03.112Z,-0.7
2016-10-07T06:47:03.125Z,-0.44
2016-10-07T06:48:03.092Z,-0.42
2016-10-07T06:49:03.073Z,-0.19
2016-10-07T06:50:03.046Z,0.02
2016-10-07T06:51:03.037Z,0.12
2016-10-07T06:52:03.046Z,0.08
2016-10-07T06:53:03.023Z,0.16
2016-10-07T06:54:02.986Z,0.1
2016-10-07T06:55:03.000Z,-0.09
2016-10-07T06:56:02.956Z,-0.26
2016-10-07T06:57:02.945Z,-0.42
2016-10-07T06:58:02.955Z,-0.55
2016-10-07T06:59:02.926Z,-0.7
2016-10-07T07:00:02.912Z,-0.68
2016-10-07T07:01:02.904Z,-0.73
2016-10-07T07:02:02.900Z,-0.85
2016-10-07T07:03:02.859Z,-0.76
2016-10-07T07:04:03.146Z,-0.89
2016-10-07T07:05:02.819Z,-0.85
2016-10-07T07:06:02.827Z,-0.68
2016-10-07T07:07:02.819Z,-0.68
2016-10-07T07:08:03.160Z,-0.47
2016-10-07T07:09:02.794Z,-0.52
2016-10-07T07:10:02.769Z,-0.31
2016-10-07T07:11:02.769Z,-0.27
2016-10-07T07:12:02.927Z,-0.37
2016-10-07T07:13:02.893Z,-0.31
2016-10-07T07:14:02.710Z,-0.44
2016-10-07T07:15:02.687Z,-0.52
2016-10-07T07:16:02.672Z,-0.47
2016-10-07T07:17:02.658Z,-0.5
2016-10-07T07:18:02.627Z,-0.55
2016-10-07T07:19:02.612Z,-0.5
2016-10-07T07:20:02.598Z,-0.55
2016-10-07T07:21:02.601Z,-0.58
2016-10-07T07:22:02.580Z,-0.53
2016-10-07T07:23:02.575Z,-0.42
2016-10-07T07:24:02.555Z,-0.53
2016-10-07T07:25:02.537Z,-0.62
2016-10-07T07:26:02.514Z,-0.76
2016-10-07T07:27:02.492Z,-0.77
2016-10-07T07:28:02.484Z,-0.73
2016-10-07T07:29:02.473Z,-0.93
2016-10-07T07:30:02.462Z,-0.81
2016-10-07T07:31:02.429Z,-0.77
2016-10-07T07:32:02.417Z,-0.38
2016-10-07T07:33:02.711Z,-0.32
2016-10-07T07:34:02.394Z,-0.31
2016-10-07T07:35:02.384Z,-0.37
2016-10-07T07:36:02.342Z,-0.32
2016-10-07T07:37:02.346Z,-0.38
2016-10-07T07:38:02.367Z,-0.27
2016-10-07T07:39:02.336Z,-0.16
2016-10-07T07:40:02.289Z,0.12
2016-10-07T07:41:02.276Z,0.17
2016-10-07T07:42:02.282Z,0.31
2016-10-07T07:43:02.269Z,0.33
2016-10-07T07:44:02.261Z,0.31
2016-10-07T07:45:02.219Z,0.16
2016-10-07T07:46:02.200Z,0.17
2016-10-07T07:47:02.187Z,0.13
2016-10-07T07:48:02.171Z,0.38
2016-10-07T07:49:02.187Z,0.23
2016-10-07T07:50:02.154Z,0.2
2016-10-07T07:51:02.124Z,0.01
2016-10-07T07:52:02.147Z,-0.09
2016-10-07T07:53:02.110Z,-0.06
2016-10-07T07:54:02.087Z,-0.01
2016-10-07T07:55:02.062Z,-0.2
2016-10-07T07:56:02.047Z,-0.27
2016-10-07T07:57:02.031Z,-0.16
2016-10-07T07:58:02.031Z,-0.03
2016-10-07T07:59:02.020Z,-0.14
2016-10-07T08:00:01.978Z,-0.12
2016-10-07T08:01:01.972Z,-0.05
2016-10-07T08:02:01.989Z,-0.26
2016-10-07T08:03:01.945Z,-0.39
2016-10-07T08:04:01.921Z,-0.45
2016-10-07T08:05:01.927Z,-0.31
2016-10-07T08:06:01.904Z,-0.16
2016-10-07T08:07:01.886Z,-0.05
2016-10-07T08:08:01.847Z,0.12
2016-10-07T08:09:01.843Z,0.08
2016-10-07T08:10:01.849Z,0.1
2016-10-07T08:11:01.800Z,0.25
2016-10-07T08:12:01.805Z,0.22
2016-10-07T08:13:01.774Z,0.31
2016-10-07T08:14:01.772Z,0.17
2016-10-07T08:15:01.758Z,0.22
2016-10-07T08:16:01.730Z,0.38
2016-10-07T08:17:01.711Z,0.57
2016-10-07T08:18:01.704Z,0.63
2016-10-07T08:19:01.710Z,0.92
2016-10-07T08:20:01.678Z,0.92
2016-10-07T08:21:01.662Z,1.11
2016-10-07T08:22:01.639Z,1.24
2016-10-07T08:23:01.623Z,1.24
2016-10-07T08:24:01.621Z,1.39
2016-10-07T08:25:01.623Z,1.6
2016-10-07T08:26:01.576Z,1.86
2016-10-07T08:27:01.571Z,2.62
2016-10-07T08:28:01.571Z,3.35
2016-10-07T08:29:01.564Z,3.95
2016-10-07T08:30:01.580Z,4.83
2016-10-07T08:31:01.514Z,4.49
2016-10-07T08:32:01.497Z,4.11
2016-10-07T08:33:01.473Z,4.2
2016-10-07T08:34:01.474Z,4.14
2016-10-07T08:35:01.454Z,3.7
2016-10-07T08:36:01.456Z,3.68
2016-10-07T08:37:01.446Z,3.7
2016-10-07T08:38:01.429Z,4.07
2016-10-07T08:39:01.408Z,4.17
2016-10-07T08:40:01.395Z,4.34
2016-10-07T08:41:01.393Z,4.1
2016-10-07T08:42:01.365Z,4.11
2016-10-07T08:43:01.340Z,4.57
2016-10-07T08:44:01.342Z,4.35
2016-10-07T08:45:01.339Z,4.17
2016-10-07T08:46:01.339Z,4.11
2016-10-07T08:47:01.297Z,4.16
2016-10-07T08:48:01.310Z,4.38
2016-10-07T08:49:01.287Z,4.5
2016-10-07T08:50:01.284Z,4.31
2016-10-07T08:51:01.269Z,4.67
2016-10-07T08:52:01.238Z,4.56
2016-10-07T08:53:01.216Z,4.38
2016-10-07T08:54:01.226Z,3.95
2016-10-07T08:55:01.195Z,3.7
2016-10-07T08:56:01.181Z,3.42
2016-10-07T08:57:01.185Z,3.02
2016-10-07T08:58:01.159Z,3.34
2016-10-07T08:59:01.159Z,3.16
2016-10-07T09:00:01.153Z,3.54
2016-10-07T09:01:01.129Z,3.8
2016-10-07T09:02:01.124Z,3.8
2016-10-07T09:03:01.125Z,3.81
2016-10-07T09:04:01.084Z,4.08
2016-10-07T09:05:01.085Z,3.82
2016-10-07T09:06:01.072Z,3.35
2016-10-07T09:07:01.051Z,3.53
2016-10-07T09:08:01.042Z,3.49
2016-10-07T09:09:01.021Z,3.63
2016-10-07T09:10:01.007Z,3.39
2016-10-07T09:11:01.002Z,3.63
2016-10-07T09:12:00.976Z,3.49
2016-10-07T09:13:00.975Z,3.12
2016-10-07T09:14:00.962Z,3.16
2016-10-07T09:15:01.268Z,2.92
2016-10-07T09:16:00.957Z,2.94
2016-10-07T09:17:00.915Z,3.39
2016-10-07T09:18:00.922Z,3.75
2016-10-07T09:19:00.888Z,3.37
2016-10-07T09:20:01.185Z,2.89
2016-10-07T09:21:00.917Z,2.66
2016-10-07T09:22:00.877Z,2.97
2016-10-07T09:23:00.841Z,3.41
2016-10-07T09:24:00.838Z,3.49
2016-10-07T09:25:00.834Z,3.53
2016-10-07T09:26:00.800Z,3.64
2016-10-07T09:27:00.798Z,3.82
2016-10-07T09:28:00.794Z,3.82
2016-10-07T09:29:00.791Z,3.77
2016-10-07T09:30:00.767Z,3.59
2016-10-07T09:31:00.743Z,3.8
2016-10-07T09:32:00.766Z,3.8
2016-10-07T09:33:00.734Z,3.86
2016-10-07T09:34:00.728Z,3.82
2016-10-07T09:35:00.720Z,3.75
2016-10-07T09:36:00.704Z,4.1
2016-10-07T09:37:00.679Z,3.98
2016-10-07T09:38:00.677Z,4.28
2016-10-07T09:39:00.655Z,5.14
2016-10-07T09:40:00.624Z,5.42
2016-10-07T09:41:00.634Z,4.83
2016-10-07T09:42:00.620Z,4.75
2016-10-07T09:43:00.590Z,4.9
2016-10-07T09:44:00.597Z,4.29
2016-10-07T09:45:00.586Z,4.31
2016-10-07T09:46:00.570Z,3.77
2016-10-07T09:47:00.568Z,4.11
2016-10-07T09:48:00.549Z,4.53
2016-10-07T09:49:00.535Z,4.28
2016-10-07T09:50:00.511Z,4.32
2016-10-07T09:51:00.497Z,3.59
2016-10-07T09:52:00.491Z,3.23
2016-10-07T09:53:00.483Z,3.62
2016-10-07T09:54:00.522Z,3.62
2016-10-07T09:55:00.460Z,3.82
2016-10-07T09:56:00.426Z,4.02
2016-10-07T09:57:00.419Z,4.21
2016-10-07T09:58:00.422Z,4.11
2016-10-07T09:59:00.396Z,4.39
2016-10-07T10:00:00.411Z,4.17
2016-10-07T10:01:00.361Z,3.86
2016-10-07T10:02:00.371Z,4.02
2016-10-07T10:03:00.355Z,4.08
2016-10-07T10:04:00.335Z,4
2016-10-07T10:05:00.324Z,4.07
2016-10-07T10:06:00.312Z,3.82
2016-10-07T10:07:00.296Z,4.2
2016-10-07T10:08:00.289Z,4.35
2016-10-07T10:09:00.255Z,4.88
2016-10-07T10:10:00.250Z,5.44
2016-10-07T10:11:00.258Z,5.05
2016-10-07T10:12:00.244Z,5.45
2016-10-07T10:13:00.240Z,5.66
2016-10-07T10:14:00.222Z,5.78
2016-10-07T10:15:00.192Z,5.6
2016-10-07T10:16:00.186Z,5.95
2016-10-07T10:17:00.196Z,5.96
2016-10-07T10:18:00.150Z,5.95
2016-10-07T10:19:00.146Z,6.1
2016-10-07T10:20:00.127Z,6.45
2016-10-07T10:21:00.126Z,6.43
2016-10-07T10:22:00.136Z,6.58
2016-10-07T10:23:00.094Z,6.86
2016-10-07T10:24:00.068Z,7.01
2016-10-07T10:25:00.068Z,6.65
2016-10-07T10:26:00.062Z,6.82
2016-10-07T10:27:00.069Z,6.86
2016-10-07T10:28:00.048Z,6.54
2016-10-07T10:29:00.032Z,6.63
2016-10-07T10:30:00.028Z,6.2
2016-10-07T10:31:00.013Z,5.96
2016-10-07T10:32:00.000Z,5.42
2016-10-07T10:32:59.986Z,5.01
2016-10-07T10:33:59.968Z,4.71
2016-10-07T10:34:59.986Z,4.44
2016-10-07T10:35:59.981Z,4.28
2016-10-07T10:36:59.944Z,4.16
2016-10-07T10:37:59.919Z,3.99
2016-10-07T10:38:59.930Z,3.6
2016-10-07T10:39:59.890Z,4.18
2016-10-07T10:40:59.884Z,4.83
2016-10-07T10:41:59.870Z,4.32
2016-10-07T10:43:00.167Z,4.13
2016-10-07T10:43:59.846Z,4.43
2016-10-07T10:44:59.825Z,4.46
2016-10-07T10:45:59.828Z,4.2
2016-10-07T10:46:59.806Z,4.56
2016-10-07T10:47:59.799Z,3.92
2016-10-07T10:48:59.787Z,3.71
2016-10-07T10:49:59.790Z,4
2016-10-07T10:50:59.744Z,4.62
2016-10-07T10:51:59.752Z,5.17
2016-10-07T10:52:59.737Z,4.83
2016-10-07T10:53:59.723Z,5.17
2016-10-07T10:54:59.713Z,5.42
2016-10-07T10:55:59.678Z,5.44
2016-10-07T10:56:59.685Z,5.33
2016-10-07T10:57:59.665Z,4.61
2016-10-07T10:58:59.654Z,4.67
2016-10-07T10:59:59.649Z,4.67
2016-10-07T11:00:59.638Z,4.64
2016-10-07T11:01:59.620Z,5.01
2016-10-07T11:02:59.621Z,5.06
2016-10-07T11:03:59.591Z,5.56
2016-10-07T11:04:59.585Z,5.63
2016-10-07T11:05:59.568Z,5.44
2016-10-07T11:06:59.553Z,4.83
2016-10-07T11:07:59.763Z,4.79
2016-10-07T11:08:59.521Z,5.26
2016-10-07T11:09:59.525Z,4.83
2016-10-07T11:10:59.498Z,4.61
2016-10-07T11:11:59.492Z,5.35
2016-10-07T11:12:59.467Z,5.02
2016-10-07T11:13:59.480Z,4.75
2016-10-07T11:14:59.467Z,4.94
2016-10-07T11:15:59.440Z,4.87
2016-10-07T11:16:59.435Z,4.79
2016-10-07T11:17:59.436Z,5.23
2016-10-07T11:18:59.396Z,5.84
2016-10-07T11:19:59.404Z,6.3
2016-10-07T11:20:59.380Z,5.93
2016-10-07T11:21:59.351Z,5.75
2016-10-07T11:22:59.353Z,5.15
2016-10-07T11:23:59.347Z,4.71
2016-10-07T11:24:59.323Z,4.83
2016-10-07T11:25:59.331Z,5.15
2016-10-07T11:26:59.330Z,5.6
2016-10-07T11:27:59.293Z,5.59
2016-10-07T11:28:59.279Z,5.63
2016-10-07T11:29:59.265Z,5.17
2016-10-07T11:30:59.274Z,4.93
2016-10-07T11:31:59.247Z,5.29
2016-10-07T11:32:59.428Z,5.4
2016-10-07T11:33:59.218Z,5.27
2016-10-07T11:34:59.205Z,5.49
2016-10-07T11:35:59.200Z,5.98
2016-10-07T11:36:59.180Z,5.95
2016-10-07T11:37:59.168Z,6.35
2016-10-07T11:38:59.149Z,5.95
2016-10-07T11:39:59.157Z,5.96
2016-10-07T11:40:59.151Z,5.92
2016-10-07T11:41:59.141Z,6.27
2016-10-07T11:42:59.127Z,6.4
2016-10-07T11:43:59.087Z,6.91
2016-10-07T11:44:59.090Z,6.89
2016-10-07T11:45:59.085Z,7.37
2016-10-07T11:46:59.080Z,7.69
2016-10-07T11:47:59.045Z,7.29
2016-10-07T11:48:59.053Z,7.09
2016-10-07T11:49:59.035Z,7.21
2016-10-07T11:50:59.015Z,7.3
2016-10-07T11:51:59.019Z,6.72
2016-10-07T11:52:59.382Z,6.16
2016-10-07T11:53:59.004Z,6.25
2016-10-07T11:54:58.981Z,6.91
2016-10-07T11:55:58.953Z,6.63
2016-10-07T11:56:58.952Z,6.86
2016-10-07T11:57:58.936Z,6.36
2016-10-07T11:58:58.941Z,6.25
2016-10-07T11:59:58.909Z,6.55
2016-10-07T12:00:58.910Z,6.86
2016-10-07T12:01:58.896Z,6.36
2016-10-07T12:02:58.883Z,6.61
2016-10-07T12:03:59.067Z,5.83
2016-10-07T12:04:58.860Z,5.96
2016-10-07T12:05:58.922Z,6.05
2016-10-07T12:06:58.859Z,6.36
2016-10-07T12:07:58.846Z,5.93
2016-10-07T12:08:58.839Z,5.83
2016-10-07T12:09:58.811Z,6.97
2016-10-07T12:10:58.814Z,7.01
2016-10-07T12:11:58.768Z,6.45
2016-10-07T12:12:58.770Z,5.2
2016-10-07T12:13:58.746Z,3.92
2016-10-07T12:14:58.745Z,3.31
2016-10-07T12:15:58.720Z,2.99
2016-10-07T12:16:58.721Z,2.95
2016-10-07T12:17:58.699Z,3.26
2016-10-07T12:18:58.698Z,3.46
2016-10-07T12:19:58.685Z,3.15
2016-10-07T12:20:58.996Z,2.66
2016-10-07T12:21:58.680Z,2
2016-10-07T12:22:58.643Z,1.61
2016-10-07T12:23:58.635Z,1.88
2016-10-07T12:24:58.644Z,1.95
2016-10-07T12:25:58.618Z,1.93
2016-10-07T12:26:58.578Z,1.82
2016-10-07T12:27:58.565Z,1.74
2016-10-07T12:28:58.576Z,1.63
2016-10-07T12:29:58.535Z,1.49
2016-10-07T12:30:58.542Z,1.18
2016-10-07T12:31:58.528Z,1.38
2016-10-07T12:32:58.513Z,1.29
2016-10-07T12:33:58.514Z,1.04
2016-10-07T12:34:58.478Z,0.8
2016-10-07T12:35:58.463Z,1.2
2016-10-07T12:36:58.453Z,0.8
2016-10-07T12:37:58.435Z,0.64
2016-10-07T12:38:58.432Z,1.06
2016-10-07T12:39:58.402Z,1.16
2016-10-07T12:40:58.394Z,1.1
2016-10-07T12:41:58.384Z,1.1
2016-10-07T12:42:58.361Z,0.86
2016-10-07T12:43:58.343Z,0.62
2016-10-07T12:44:58.530Z,0.48
2016-10-07T12:45:58.318Z,0.34
2016-10-07T12:46:58.321Z,0.45
2016-10-07T12:47:58.292Z,0.51
2016-10-07T12:48:58.268Z,0.57
2016-10-07T12:49:58.325Z,0.43
2016-10-07T12:50:58.234Z,0.33
2016-10-07T12:51:58.245Z,-0.09
2016-10-07T12:52:58.227Z,-0.08
2016-10-07T12:53:58.203Z,0.04
2016-10-07T12:54:58.220Z,0.12
2016-10-07T12:55:58.155Z,0.37
2016-10-07T12:56:58.154Z,0.22
2016-10-07T12:57:58.135Z,0.17
2016-10-07T12:58:58.111Z,0.01
2016-10-07T12:59:58.114Z,0.04
2016-10-07T13:00:58.071Z,-0.12
2016-10-07T13:01:58.377Z,-0.09
2016-10-07T13:02:58.061Z,-0.14
2016-10-07T13:03:58.039Z,-0.06
2016-10-07T13:04:58.031Z,0.1
2016-10-07T13:05:58.034Z,-0.31
2016-10-07T13:06:57.984Z,-0.39
2016-10-07T13:07:57.989Z,-0.3